Time;durP1;ratioP1;P1;durP2;ratioP2;P2;SDS_P1;SDS_P2;PMS_P1;PMS_P2;Temp;Humidity;BMP_temperature;BMP_pressure;BME280_temperature;BME280_humidity;BME280_pressure;Samples;Min_cycle;Max_cycle;Signal;HPM_P1;HPM_P2
2023/04/19 00:01:12;;;;;;;15.32;9.23;;;;;;;9.13;100.00;102622.25;5069474;28;20044;-54
2023/04/19 00:03:40;;;;;;;16.00;9.23;;;;;;;9.19;100.00;102608.06;5071065;28;20106;-52
2023/04/19 00:06:14;;;;;;;13.15;8.85;;;;;;;9.14;100.00;102611.69;5070098;28;20052;-53
2023/04/19 00:08:42;;;;;;;12.57;8.38;;;;;;;9.15;100.00;102623.09;5070123;28;20547;-53
2023/04/19 00:11:10;;;;;;;13.10;9.15;;;;;;;9.16;100.00;102611.66;5066769;28;20086;-52
2023/04/19 00:13:38;;;;;;;15.45;9.38;;;;;;;9.22;100.00;102611.47;5067412;28;20051;-54
2023/04/19 00:16:07;;;;;;;13.13;9.00;;;;;;;9.23;100.00;102609.69;5066960;28;21123;-54
2023/04/19 00:18:37;;;;;;;14.07;8.73;;;;;;;9.23;100.00;102607.94;5066740;28;21529;-53
2023/04/19 00:21:06;;;;;;;13.40;8.50;;;;;;;9.18;100.00;102607.22;5066359;28;20098;-54
2023/04/19 00:23:42;;;;;;;13.93;8.52;;;;;;;9.17;100.00;102602.88;5066243;28;20045;-52
2023/04/19 00:26:14;;;;;;;14.15;8.52;;;;;;;9.24;100.00;102604.44;5066376;28;20074;-52
2023/04/19 00:28:42;;;;;;;11.93;8.13;;;;;;;9.23;100.00;102600.06;5068613;28;20407;-54
2023/04/19 00:31:10;;;;;;;16.13;9.50;;;;;;;9.20;100.00;102591.44;5066204;28;20115;-53
2023/04/19 00:33:38;;;;;;;14.75;9.77;;;;;;;9.17;100.00;102591.53;5070022;28;20064;-53
2023/04/19 00:36:08;;;;;;;13.63;9.20;;;;;;;9.15;100.00;102599.47;5071060;28;20438;-54
2023/04/19 00:38:38;;;;;;;14.13;9.63;;;;;;;9.12;100.00;102595.16;5073380;28;20062;-55
2023/04/19 00:41:06;;;;;;;14.23;9.85;;;;;;;9.08;100.00;102596.16;5073308;28;20041;-54
2023/04/19 00:43:34;;;;;;;14.95;9.30;;;;;;;9.07;100.00;102597.06;5072626;28;20041;-55
2023/04/19 00:46:02;;;;;;;15.32;9.85;;;;;;;9.06;100.00;102591.88;5072131;28;20099;-56
2023/04/19 00:48:31;;;;;;;14.07;8.98;;;;;;;9.07;100.00;102590.97;5073294;28;20056;-55
2023/04/19 00:51:01;;;;;;;15.77;10.02;;;;;;;9.00;100.00;102574.53;5072828;28;20037;-51
2023/04/19 00:53:30;;;;;;;14.57;9.40;;;;;;;8.98;100.00;102586.00;5073411;28;20063;-53
2023/04/19 00:56:03;;;;;;;14.02;9.55;;;;;;;8.89;100.00;102574.88;5071344;28;20590;-54
2023/04/19 00:58:34;;;;;;;13.77;9.77;;;;;;;8.94;100.00;102583.47;5070661;28;20094;-55
2023/04/19 01:01:02;;;;;;;14.48;9.80;;;;;;;8.88;100.00;102583.63;5071350;28;20590;-53
2023/04/19 01:03:30;;;;;;;14.65;10.07;;;;;;;8.89;100.00;102582.75;5070009;28;20584;-53
2023/04/19 01:05:59;;;;;;;14.77;9.48;;;;;;;8.83;100.00;102582.91;5073979;28;20052;-53
2023/04/19 01:08:27;;;;;;;14.98;10.55;;;;;;;8.76;100.00;102581.38;5070118;28;20056;-53
2023/04/19 01:10:55;;;;;;;15.52;10.00;;;;;;;8.75;100.00;102583.16;5072594;28;20051;-53
2023/04/19 01:13:26;;;;;;;15.23;10.35;;;;;;;8.75;100.00;102582.28;5074778;28;20711;-54
2023/04/19 01:15:55;;;;;;;14.38;9.27;;;;;;;8.75;100.00;102580.53;5074579;28;20070;-52
2023/04/19 01:18:24;;;;;;;14.60;9.63;;;;;;;8.77;100.00;102570.00;5070726;28;20113;-48
2023/04/19 01:20:52;;;;;;;13.15;8.95;;;;;;;8.75;100.00;102572.66;5071477;28;20518;-51
2023/04/19 01:23:22;;;;;;;16.80;10.10;;;;;;;8.71;100.00;102572.78;5071208;28;20072;-52
2023/04/19 01:25:50;;;;;;;15.65;9.60;;;;;;;8.71;100.00;102572.78;5070297;28;20053;-60
2023/04/19 01:28:18;;;;;;;16.65;9.68;;;;;;;8.64;100.00;102569.50;5073022;28;20152;-61
2023/04/19 01:30:49;;;;;;;15.48;9.85;;;;;;;8.62;100.00;102577.41;5071852;28;20032;-60
2023/04/19 01:33:20;;;;;;;14.25;9.77;;;;;;;8.63;100.00;102565.16;5072839;28;20097;-60
2023/04/19 01:35:49;;;;;;;14.77;9.65;;;;;;;8.67;100.00;102576.41;5070663;28;20043;-61
2023/04/19 01:38:17;;;;;;;13.80;9.60;;;;;;;8.66;100.00;102572.94;5071775;28;20082;-61
2023/04/19 01:40:46;;;;;;;15.25;9.75;;;;;;;8.58;100.00;102569.69;5072829;28;20041;-61
2023/04/19 01:43:17;;;;;;;16.23;9.93;;;;;;;8.55;100.00;102568.00;5072745;28;20575;-60
2023/04/19 01:45:45;;;;;;;14.27;9.70;;;;;;;8.56;100.00;102567.09;5071580;28;20504;-60
2023/04/19 01:48:13;;;;;;;15.15;9.93;;;;;;;8.49;100.00;102562.06;5072982;28;20040;-61
2023/04/19 01:50:41;;;;;;;16.95;10.40;;;;;;;8.43;100.00;102566.56;5072559;28;20617;-60
2023/04/19 01:53:10;;;;;;;16.50;10.05;;;;;;;8.43;100.00;102571.78;5071270;28;20049;-61
2023/04/19 01:55:39;;;;;;;17.25;10.63;;;;;;;8.34;100.00;102574.69;5072662;28;20045;-61
2023/04/19 01:58:08;;;;;;;15.40;10.13;;;;;;;8.39;100.00;102564.94;5069209;28;20086;-60
2023/04/19 02:00:36;;;;;;;15.07;10.40;;;;;;;8.31;100.00;102563.44;5070682;28;20029;-61
2023/04/19 02:03:05;;;;;;;15.90;10.48;;;;;;;8.26;100.00;102564.44;5070591;28;20102;-61
2023/04/19 02:05:33;;;;;;;14.30;9.48;;;;;;;8.24;100.00;102568.00;5072922;28;20048;-62
2023/04/19 02:08:01;;;;;;;15.85;10.40;;;;;;;8.24;100.00;102557.50;5072333;28;20048;-53
2023/04/19 02:10:29;;;;;;;15.82;9.73;;;;;;;8.17;100.00;102567.28;5071410;28;20113;-53
2023/04/19 02:12:57;;;;;;;15.68;9.45;;;;;;;8.21;100.00;102568.94;5071634;28;20495;-53
2023/04/19 02:15:27;;;;;;;15.07;10.02;;;;;;;8.10;100.00;102568.38;5070610;28;20032;-61
2023/04/19 02:17:55;;;;;;;14.82;9.98;;;;;;;8.12;100.00;102566.56;5070429;28;20467;-61
2023/04/19 02:20:23;;;;;;;16.65;10.45;;;;;;;8.10;100.00;102566.59;5071866;28;20040;-60
2023/04/19 02:22:51;;;;;;;14.50;9.48;;;;;;;8.15;100.00;102574.31;5069623;28;20044;-53
2023/04/19 02:25:20;;;;;;;15.13;9.82;;;;;;;8.07;100.00;102571.06;5065864;28;20070;-52
2023/04/19 02:27:48;;;;;;;15.70;9.15;;;;;;;8.06;100.00;102574.59;5068033;28;20048;-52
2023/04/19 02:30:16;;;;;;;15.15;9.55;;;;;;;8.09;100.00;102564.03;5066837;28;20102;-53
2023/04/19 02:32:47;;;;;;;17.33;10.98;;;;;;;8.08;100.00;102575.41;5070628;28;20094;-53
2023/04/19 02:35:16;;;;;;;15.57;10.35;;;;;;;8.13;100.00;102563.03;5070936;28;20048;-51
2023/04/19 02:37:44;;;;;;;14.98;10.23;;;;;;;8.09;100.00;102575.34;5071008;28;20116;-52
2023/04/19 02:40:12;;;;;;;16.83;9.45;;;;;;;8.13;100.00;102571.75;5069943;28;20051;-52
2023/04/19 02:42:41;;;;;;;15.73;9.77;;;;;;;8.11;100.00;102570.94;5066167;28;20036;-52
2023/04/19 02:45:10;;;;;;;15.02;9.32;;;;;;;8.12;100.00;102570.03;5071105;28;20044;-54
2023/04/19 02:47:38;;;;;;;14.52;8.75;;;;;;;8.12;100.00;102569.19;5071452;28;20041;-51
2023/04/19 02:50:09;;;;;;;14.45;9.02;;;;;;;8.15;100.00;102569.09;5070420;28;20037;-55
2023/04/19 02:52:37;;;;;;;15.35;8.98;;;;;;;8.25;100.00;102573.19;5067627;28;20036;-54
2023/04/19 02:55:06;;;;;;;13.55;8.63;;;;;;;8.24;100.00;102568.00;5066772;28;20037;-52
2023/04/19 02:57:34;;;;;;;15.20;8.63;;;;;;;8.26;100.00;102567.03;5067335;28;20048;-53
2023/04/19 03:00:04;;;;;;;15.15;8.90;;;;;;;8.37;100.00;102565.88;5071207;28;20090;-51
2023/04/19 03:02:32;;;;;;;13.55;8.27;;;;;;;8.38;100.00;102565.81;5071512;28;21149;-53
2023/04/19 03:05:00;;;;;;;15.38;8.80;;;;;;;8.33;100.00;102562.50;5071206;28;20215;-53
2023/04/19 03:07:30;;;;;;;14.15;8.65;;;;;;;8.42;100.00;102575.31;5068826;28;20511;-51
2023/04/19 03:09:58;;;;;;;14.02;7.65;;;;;;;8.48;100.00;102571.72;5068993;28;20056;-54
2023/04/19 03:12:26;;;;;;;13.40;7.85;;;;;;;8.49;100.00;102560.31;5071275;28;20040;-54
2023/04/19 03:14:57;;;;;;;13.93;8.35;;;;;;;8.46;100.00;102570.88;5068167;28;20040;-54
2023/04/19 03:17:25;;;;;;;13.63;8.43;;;;;;;8.46;100.00;102560.41;5069585;28;20079;-54
2023/04/19 03:19:54;;;;;;;12.73;7.72;;;;;;;8.55;100.00;102567.13;5072417;28;20040;-54
2023/04/19 03:22:22;;;;;;;14.38;7.93;;;;;;;8.51;100.00;102571.63;5069941;28;20036;-52
2023/04/19 03:24:51;;;;;;;13.10;7.65;;;;;;;8.56;100.00;102568.84;5068595;28;20499;-55
2023/04/19 03:27:19;;;;;;;11.40;7.90;;;;;;;8.51;100.00;102576.88;5069483;28;20561;-54
2023/04/19 03:29:47;;;;;;;13.73;7.72;;;;;;;8.58;100.00;102570.53;5069860;28;20051;-53
2023/04/19 03:32:16;;;;;;;11.35;7.38;;;;;;;8.55;100.00;102559.25;5068269;28;20501;-52
2023/04/19 03:34:44;;;;;;;12.02;7.40;;;;;;;8.56;100.00;102568.84;5064568;28;20491;-53
2023/04/19 03:37:12;;;;;;;11.32;7.38;;;;;;;8.56;100.00;102555.75;5066377;28;20125;-54
2023/04/19 03:39:40;;;;;;;10.57;6.70;;;;;;;8.66;100.00;102559.81;5066000;28;20368;-52
2023/04/19 03:42:09;;;;;;;15.20;7.45;;;;;;;8.66;100.00;102557.19;5066877;28;20391;-53
2023/04/19 03:44:38;;;;;;;12.10;6.90;;;;;;;8.62;100.00;102564.28;5066353;28;20083;-53
2023/04/19 03:47:06;;;;;;;11.57;7.07;;;;;;;8.75;100.00;102566.53;5067222;28;20090;-53
2023/04/19 03:49:34;;;;;;;12.85;7.07;;;;;;;8.68;100.00;102562.41;5068399;28;20090;-53
2023/04/19 03:52:03;;;;;;;14.07;6.68;;;;;;;8.67;100.00;102571.16;5071457;28;20045;-53
2023/04/19 03:54:31;;;;;;;12.13;6.72;;;;;;;8.75;100.00;102562.19;5068989;28;20567;-55
2023/04/19 03:56:59;;;;;;;13.13;6.90;;;;;;;8.71;100.00;102571.03;5069005;28;20045;-54
2023/04/19 03:59:28;;;;;;;10.98;6.95;;;;;;;8.72;100.00;102566.66;5064679;28;20471;-54
2023/04/19 04:01:56;;;;;;;12.35;6.63;;;;;;;8.60;100.00;102565.22;5069028;28;20041;-54
2023/04/19 04:04:25;;;;;;;10.93;6.63;;;;;;;8.56;100.00;102569.72;5066092;28;20151;-54
2023/04/19 04:06:56;;;;;;;12.00;7.10;;;;;;;8.50;100.00;102562.03;5068047;28;20135;-54
2023/04/19 04:09:24;;;;;;;11.57;6.07;;;;;;;8.43;100.00;102570.94;5070539;28;20456;-54
2023/04/19 04:11:52;;;;;;;11.73;6.97;;;;;;;8.43;100.00;102570.94;5071534;28;20044;-54
2023/04/19 04:14:24;;;;;;;12.68;7.32;;;;;;;8.34;100.00;102566.81;5073965;28;20433;-54
2023/04/19 04:16:53;;;;;;;10.93;6.53;;;;;;;8.36;100.00;102569.41;5073418;28;20040;-54
2023/04/19 04:19:21;;;;;;;10.27;6.30;;;;;;;8.32;100.00;102571.25;5073297;28;20503;-54
2023/04/19 04:21:49;;;;;;;11.90;6.50;;;;;;;8.26;100.00;102572.28;5070053;28;20040;-53
2023/04/19 04:24:19;;;;;;;11.80;7.25;;;;;;;8.24;100.00;102570.59;5071061;28;20049;-54
2023/04/19 04:26:50;;;;;;;10.73;6.35;;;;;;;8.19;100.00;102568.09;5072666;28;20041;-52
2023/04/19 04:29:18;;;;;;;10.77;6.47;;;;;;;8.14;100.00;102570.00;5073342;28;20037;-51
2023/04/19 04:31:46;;;;;;;9.40;5.93;;;;;;;8.09;100.00;102569.28;5071940;28;20090;-51
2023/04/19 04:34:16;;;;;;;11.90;6.78;;;;;;;8.02;100.00;102570.34;5067409;28;20078;-54
2023/04/19 04:36:44;;;;;;;12.25;6.85;;;;;;;8.02;100.00;102579.06;5071195;28;20051;-51
2023/04/19 04:39:13;;;;;;;11.23;7.15;;;;;;;7.98;100.00;102571.31;5073592;28;20099;-52
2023/04/19 04:41:41;;;;;;;12.48;6.22;;;;;;;7.97;100.00;102567.81;5071052;28;20040;-53
2023/04/19 04:44:09;;;;;;;11.55;6.63;;;;;;;7.84;100.00;102562.06;5068089;28;20117;-53
2023/04/19 04:46:50;;;;;;;10.93;6.32;;;;;;;7.79;100.00;102572.66;5070139;28;20130;-54
2023/04/19 04:49:22;;;;;;;10.70;6.13;;;;;;;7.78;100.00;102559.59;5067156;28;20106;-54
2023/04/19 04:51:50;;;;;;;12.45;6.82;;;;;;;7.72;100.00;102565.84;5071414;28;20408;-53
2023/04/19 04:54:18;;;;;;;10.55;6.47;;;;;;;7.73;100.00;102570.19;5071952;28;20147;-53
2023/04/19 04:56:46;;;;;;;10.50;6.05;;;;;;;7.70;100.00;102567.66;5071593;28;20105;-54
2023/04/19 04:59:14;;;;;;;10.75;5.82;;;;;;;7.67;100.00;102577.34;5070323;28;20052;-53
2023/04/19 05:01:43;;;;;;;13.15;6.68;;;;;;;7.64;100.00;102574.81;5072341;28;20442;-52
2023/04/19 05:04:11;;;;;;;10.98;6.45;;;;;;;7.61;100.00;102573.97;5071773;28;20565;-62
2023/04/19 05:06:40;;;;;;;9.70;6.25;;;;;;;7.59;100.00;102581.03;5073021;28;20128;-62
2023/04/19 05:09:08;;;;;;;10.93;5.93;;;;;;;7.61;100.00;102575.75;5074565;28;20442;-61
2023/04/19 05:11:37;;;;;;;10.82;6.47;;;;;;;7.56;100.00;102585.47;5075033;28;20495;-61
2023/04/19 05:14:07;;;;;;;11.90;5.88;;;;;;;7.53;100.00;102578.56;5073979;28;20032;-61
2023/04/19 05:16:35;;;;;;;11.20;6.18;;;;;;;7.47;100.00;102583.94;5072483;28;20045;-61
2023/04/19 05:19:04;;;;;;;9.82;6.22;;;;;;;7.39;100.00;102583.25;5070457;28;20048;-61
2023/04/19 05:21:33;;;;;;;10.57;6.35;;;;;;;7.38;100.00;102586.78;5074029;28;20048;-61
2023/04/19 05:24:03;;;;;;;10.98;6.55;;;;;;;7.41;100.00;102586.72;5072847;28;20041;-60
2023/04/19 05:26:31;;;;;;;11.57;6.57;;;;;;;7.48;100.00;102582.19;5072379;28;20576;-62
2023/04/19 05:28:59;;;;;;;11.63;6.32;;;;;;;7.41;100.00;102582.31;5072080;28;20056;-61
2023/04/19 05:31:28;;;;;;;14.82;6.57;;;;;;;7.43;100.00;102592.75;5071131;28;20470;-61
2023/04/19 05:33:56;;;;;;;12.77;6.50;;;;;;;7.43;100.00;102584.91;5069474;28;20047;-61
2023/04/19 05:36:24;;;;;;;11.32;5.80;;;;;;;7.42;100.00;102589.28;5072457;28;20135;-61
2023/04/19 05:38:52;;;;;;;10.40;6.10;;;;;;;7.41;100.00;102591.94;5070517;28;20051;-61
2023/04/19 05:41:22;;;;;;;11.07;6.43;;;;;;;7.40;100.00;102595.44;5070495;28;20067;-61
2023/04/19 05:43:53;;;;;;;9.65;5.50;;;;;;;7.36;100.00;102594.69;5072140;28;20549;-60
2023/04/19 05:46:21;;;;;;;12.13;7.18;;;;;;;7.41;100.00;102602.41;5073094;28;20059;-61
2023/04/19 05:48:52;;;;;;;10.27;6.07;;;;;;;7.38;100.00;102597.25;5073254;28;20044;-61
2023/04/19 05:51:20;;;;;;;9.82;6.10;;;;;;;7.41;100.00;102598.03;5073396;28;20050;-60
2023/04/19 05:53:48;;;;;;;10.93;5.78;;;;;;;7.43;100.00;102593.63;5072812;28;20407;-61
2023/04/19 05:56:16;;;;;;;12.93;5.93;;;;;;;7.45;100.00;102593.59;5071930;28;20047;-61
2023/04/19 05:58:46;;;;;;;9.63;6.00;;;;;;;7.44;100.00;102594.47;5071102;28;20048;-61
2023/04/19 06:01:15;;;;;;;11.82;5.82;;;;;;;7.48;100.00;102585.66;5069710;28;20570;-61
2023/04/19 06:03:43;;;;;;;10.48;5.60;;;;;;;7.49;100.00;102590.00;5068771;28;20044;-61
2023/04/19 06:06:11;;;;;;;10.25;5.75;;;;;;;7.60;100.00;102602.81;5068923;28;20108;-61
2023/04/19 06:08:40;;;;;;;10.63;5.55;;;;;;;7.66;100.00;102593.97;5069721;28;20047;-61
2023/04/19 06:11:08;;;;;;;9.10;5.40;;;;;;;7.71;100.00;102597.31;5070476;28;20064;-61
2023/04/19 06:13:55;;;;;;;8.82;5.28;;;;;;;7.75;100.00;102593.72;5068392;28;20052;-61
2023/04/19 06:16:26;;;;;;;11.85;6.07;;;;;;;7.82;100.00;102603.16;5068470;28;20134;-54
2023/04/19 06:18:54;;;;;;;8.95;5.60;;;;;;;7.95;100.00;102601.09;5066242;28;20501;-54
2023/04/19 06:21:22;;;;;;;9.77;4.57;;;;;;;8.06;100.00;102596.41;5066021;28;20047;-52
2023/04/19 06:23:50;;;;;;;9.60;5.20;;;;;;;8.15;100.00;102605.78;5066157;28;20048;-53
2023/04/19 06:26:20;;;;;;;9.75;5.05;;;;;;;8.25;100.00;102602.03;5070472;28;20054;-61
2023/04/19 06:28:49;;;;;;;9.30;5.63;;;;;;;8.31;100.00;102600.97;5068309;28;20079;-61
2023/04/19 06:31:18;;;;;;;9.88;4.95;;;;;;;8.38;100.00;102604.31;5069207;28;20045;-61
2023/04/19 06:33:46;;;;;;;11.25;5.38;;;;;;;8.46;100.00;102603.19;5069044;28;20036;-61
2023/04/19 06:36:17;;;;;;;10.07;5.20;;;;;;;8.59;100.00;102601.09;5069058;28;20086;-61
2023/04/19 06:38:45;;;;;;;10.80;5.10;;;;;;;8.72;100.00;102606.84;5067414;28;20052;-61
2023/04/19 06:41:14;;;;;;;12.38;5.20;;;;;;;8.80;100.00;102601.38;5068777;28;20047;-61
2023/04/19 06:43:43;;;;;;;11.75;4.82;;;;;;;8.87;98.17;102600.28;5066206;28;20060;-61
2023/04/19 06:46:14;;;;;;;10.77;4.75;;;;;;;8.92;96.10;102606.25;5069636;28;20451;-53
2023/04/19 06:48:44;;;;;;;8.73;4.47;;;;;;;8.98;94.04;102606.97;5066844;28;20052;-54
2023/04/19 06:51:12;;;;;;;8.35;4.00;;;;;;;8.99;90.04;102611.34;5066811;28;20838;-52
2023/04/19 06:53:40;;;;;;;7.95;4.35;;;;;;;9.02;89.29;102603.34;5067138;28;20052;-54
2023/04/19 06:56:09;;;;;;;6.70;3.97;;;;;;;9.09;89.17;102612.75;5067408;28;20079;-52
2023/04/19 06:58:37;;;;;;;7.90;3.85;;;;;;;9.13;85.86;102612.63;5067127;28;20040;-54
2023/04/19 07:01:05;;;;;;;8.27;4.00;;;;;;;9.22;84.58;102616.72;5066921;28;20077;-52
2023/04/19 07:03:33;;;;;;;8.93;3.70;;;;;;;9.23;85.03;102618.44;5067659;28;20452;-51
2023/04/19 07:06:04;;;;;;;6.70;3.70;;;;;;;9.30;84.08;102619.13;5064280;28;20052;-53
2023/04/19 07:08:32;;;;;;;7.00;3.45;;;;;;;9.37;82.08;102611.91;5066406;28;20051;-52
2023/04/19 07:11:16;;;;;;;6.55;3.75;;;;;;;9.38;81.27;102616.22;5068066;28;20049;-52
2023/04/19 07:13:46;;;;;;;8.13;3.72;;;;;;;9.50;81.61;102615.00;5067003;28;20140;-52
2023/04/19 07:16:16;;;;;;;7.85;3.50;;;;;;;9.60;80.02;102614.63;5066585;28;20101;-53
2023/04/19 07:18:44;;;;;;;7.60;3.38;;;;;;;9.61;79.27;102618.13;5065396;28;20443;-53
2023/04/19 07:21:14;;;;;;;9.70;3.53;;;;;;;9.73;79.16;102632.63;5070129;28;20052;-55
2023/04/19 07:23:43;;;;;;;7.60;3.72;;;;;;;9.76;77.84;102617.63;5067488;28;20056;-52
2023/04/19 07:26:11;;;;;;;7.18;3.80;;;;;;;9.80;77.89;102619.25;5066664;28;20538;-53
2023/04/19 07:28:39;;;;;;;6.70;3.13;;;;;;;9.84;76.13;102616.50;5065600;28;20086;-51
2023/04/19 07:31:08;;;;;;;7.60;3.38;;;;;;;9.94;76.57;102626.66;5069619;28;20121;-52
2023/04/19 07:33:36;;;;;;;6.15;3.17;;;;;;;10.02;74.15;102620.25;5070539;28;20076;-52
2023/04/19 07:36:05;;;;;;;6.45;3.33;;;;;;;10.05;75.91;102615.78;5070382;28;20059;-52
2023/04/19 07:38:35;;;;;;;6.57;3.30;;;;;;;10.21;76.06;102621.34;5070574;28;20044;-50
2023/04/19 07:41:04;;;;;;;7.63;3.40;;;;;;;10.09;74.86;102613.88;5071973;28;20052;-54
2023/04/19 07:43:32;;;;;;;6.38;3.20;;;;;;;10.29;75.79;102616.69;5075585;28;20102;-53
2023/04/19 07:46:00;;;;;;;5.57;2.90;;;;;;;10.46;75.67;102618.72;5077083;28;20056;-54
2023/04/19 07:48:28;;;;;;;6.95;3.10;;;;;;;10.58;74.85;102620.06;5076607;28;20044;-54
2023/04/19 07:50:56;;;;;;;6.13;2.97;;;;;;;10.67;73.32;102616.22;5073158;28;20048;-53
2023/04/19 07:53:24;;;;;;;6.88;3.20;;;;;;;10.67;69.83;102621.47;5073030;28;20067;-53
2023/04/19 07:55:54;;;;;;;5.50;2.90;;;;;;;10.70;69.33;102623.13;5075940;28;20075;-50
2023/04/19 07:58:22;;;;;;;7.85;3.50;;;;;;;10.82;70.89;102622.66;5074963;28;20119;-52
2023/04/19 08:00:53;;;;;;;5.18;2.78;;;;;;;10.94;69.09;102626.63;5075086;28;20127;-54
2023/04/19 08:03:21;;;;;;;6.90;3.13;;;;;;;11.07;71.46;102619.09;5072154;28;20395;-53
2023/04/19 08:05:50;;;;;;;7.47;2.88;;;;;;;11.26;70.21;102614.84;5073356;28;20564;-53
2023/04/19 08:08:18;;;;;;;7.95;3.00;;;;;;;11.41;66.73;102623.03;5076312;28;20040;-52
2023/04/19 08:10:46;;;;;;;6.43;2.78;;;;;;;11.56;65.13;102627.69;5073553;28;20529;-52
2023/04/19 08:13:16;;;;;;;5.78;2.80;;;;;;;11.52;65.34;102623.47;5073912;28;20392;-53
2023/04/19 08:15:44;;;;;;;7.50;3.28;;;;;;;11.48;65.16;102621.88;5074295;28;20028;-52
2023/04/19 08:18:16;;;;;;;6.03;2.58;;;;;;;11.49;62.53;102620.94;5072482;28;20522;-54
2023/04/19 08:20:45;;;;;;;6.85;2.15;;;;;;;11.51;64.20;102608.56;5068596;28;20074;-54
2023/04/19 08:23:14;;;;;;;5.07;2.35;;;;;;;11.74;63.53;102609.38;5072802;28;20109;-52
2023/04/19 08:25:54;;;;;;;5.25;2.30;;;;;;;11.98;62.59;102608.38;5072741;28;20044;-53
2023/04/19 08:28:24;;;;;;;8.23;2.42;;;;;;;12.32;64.41;102600.75;5075957;28;20052;-53
2023/04/19 08:30:52;;;;;;;5.93;2.20;;;;;;;12.31;57.90;102599.03;5074823;28;20033;-53
2023/04/19 08:33:20;;;;;;;5.20;2.40;;;;;;;12.30;57.79;102602.63;5073833;28;20135;-54
2023/04/19 08:35:48;;;;;;;6.45;2.10;;;;;;;12.53;58.24;102601.59;5069869;28;20098;-54
2023/04/19 08:38:16;;;;;;;4.10;1.98;;;;;;;12.54;57.51;102598.00;5077812;28;20561;-54
2023/04/19 08:40:47;;;;;;;5.47;1.80;;;;;;;12.52;57.80;102607.78;5077066;28;20036;-52
2023/04/19 08:43:17;;;;;;;3.90;1.80;;;;;;;12.56;53.72;102609.34;5071650;28;20036;-53
2023/04/19 08:45:49;;;;;;;4.63;1.85;;;;;;;12.67;53.01;102606.22;5074241;28;20066;-53
2023/04/19 08:48:18;;;;;;;4.82;2.25;;;;;;;12.58;51.15;102599.56;5077288;28;20090;-54
2023/04/19 08:50:47;;;;;;;4.50;1.60;;;;;;;12.51;53.44;102609.53;5077997;28;20048;-54
2023/04/19 08:53:29;;;;;;;4.95;1.77;;;;;;;12.51;51.00;102601.63;5070796;28;20114;-52
2023/04/19 08:55:58;;;;;;;6.32;1.70;;;;;;;12.52;51.41;102605.16;5072618;28;20541;-53
2023/04/19 08:58:46;;;;;;;4.63;1.58;;;;;;;12.75;50.97;102598.81;5071540;28;20492;-54
2023/04/19 09:01:19;;;;;;;4.60;2.00;;;;;;;12.77;52.76;102596.09;5072346;28;20045;-53
2023/04/19 09:04:04;;;;;;;3.75;1.60;;;;;;;13.00;54.39;102590.56;5073470;28;20044;-55
2023/04/19 09:06:52;;;;;;;3.67;1.50;;;;;;;13.03;52.81;102586.94;5069442;28;20040;-55
2023/04/19 09:09:22;;;;;;;5.03;1.80;;;;;;;13.20;53.49;102599.34;5069677;28;20063;-62
2023/04/19 09:12:15;;;;;;;3.03;1.40;;;;;;;13.50;53.16;102593.50;5073160;28;20115;-62
2023/04/19 09:14:45;;;;;;;4.95;1.65;;;;;;;13.58;50.70;102587.81;5068879;28;20094;-62
2023/04/19 09:17:30;;;;;;;3.13;1.67;;;;;;;13.66;50.47;102598.88;5068388;28;20075;-62
2023/04/19 09:19:59;;;;;;;3.35;1.63;;;;;;;13.77;53.29;102601.84;5067407;28;20499;-62
2023/04/19 09:22:27;;;;;;;5.40;1.92;;;;;;;13.93;52.54;102585.19;5072727;28;20115;-62
2023/04/19 09:24:56;;;;;;;5.40;1.88;;;;;;;14.11;51.87;102588.66;5070331;28;20032;-62
2023/04/19 09:27:29;;;;;;;7.07;2.13;;;;;;;13.96;51.63;102585.00;5069434;28;20041;-62
2023/04/19 09:29:59;;;;;;;5.28;1.83;;;;;;;14.30;51.95;102591.19;5071214;28;20049;-63
2023/04/19 09:32:45;;;;;;;5.20;2.00;;;;;;;13.89;50.22;102591.56;5067539;28;20054;-62
2023/04/19 09:35:14;;;;;;;4.40;1.95;;;;;;;14.19;51.24;102586.44;5070954;28;20450;-62
2023/04/19 09:37:42;;;;;;;4.85;1.92;;;;;;;14.49;49.57;102581.34;5074260;28;20105;-62
2023/04/19 09:40:23;;;;;;;4.35;1.80;;;;;;;14.22;48.33;102581.03;5074260;28;20060;-62
2023/04/19 09:42:51;;;;;;;5.78;1.90;;;;;;;14.31;50.07;102587.59;5074218;28;20059;-62
2023/04/19 09:45:22;;;;;;;5.18;1.80;;;;;;;14.43;48.36;102571.06;5072988;28;20044;-62
2023/04/19 09:48:07;;;;;;;4.78;1.70;;;;;;;14.19;48.16;102589.97;5071020;28;20036;-62
2023/04/19 09:50:36;;;;;;;4.05;1.50;;;;;;;14.44;47.74;102569.25;5070617;28;20067;-62
2023/04/19 09:53:22;;;;;;;4.03;1.65;;;;;;;14.55;46.74;102558.97;5067438;28;20403;-62
2023/04/19 09:55:51;;;;;;;5.22;1.70;;;;;;;14.64;49.09;102555.84;5063567;28;20651;-62
2023/04/19 09:58:29;;;;;;;5.53;1.70;;;;;;;14.54;47.72;102557.25;5063339;28;20049;-63
2023/04/19 10:01:01;;;;;;;3.42;1.60;;;;;;;14.37;46.15;102560.81;5063292;28;20078;-63
2023/04/19 10:03:45;;;;;;;3.57;1.60;;;;;;;14.68;47.26;102552.09;5059956;28;20127;-62
2023/04/19 10:06:16;;;;;;;4.55;1.55;;;;;;;14.87;46.43;102566.94;5059627;28;20439;-62
2023/04/19 10:09:05;;;;;;;4.75;1.67;;;;;;;15.03;45.92;102554.53;5056792;28;20052;-62
2023/04/19 10:11:37;;;;;;;4.22;1.80;;;;;;;15.09;46.94;102548.00;5055287;28;20091;-62
2023/04/19 10:14:07;;;;;;;4.90;1.90;;;;;;;15.23;44.32;102541.94;5059488;28;20103;-62
2023/04/19 10:16:39;;;;;;;3.45;1.73;;;;;;;15.03;44.50;102548.38;5062974;28;20036;-62
2023/04/19 10:19:11;;;;;;;4.95;1.83;;;;;;;14.96;45.91;102547.03;5058329;28;20052;-62
2023/04/19 10:21:42;;;;;;;6.22;2.35;;;;;;;15.09;44.59;102541.88;5058275;28;20075;-62
2023/04/19 10:24:13;;;;;;;4.32;1.83;;;;;;;15.24;42.18;102545.44;5054583;28;20049;-63
2023/04/19 10:27:09;;;;;;;5.22;1.65;;;;;;;15.61;43.79;102552.09;5058809;28;20031;-62
2023/04/19 10:29:57;;;;;;;5.10;2.10;;;;;;;15.51;41.23;102548.25;5051630;28;20052;-62
2023/04/19 10:32:27;;;;;;;5.03;1.80;;;;;;;15.61;41.39;102541.47;5056312;28;20538;-62
2023/04/19 10:35:01;;;;;;;3.90;1.60;;;;;;;15.61;42.37;102551.22;5060425;28;20040;-63
2023/04/19 10:37:31;;;;;;;5.70;1.83;;;;;;;15.63;40.83;102538.72;5062697;28;20044;-63
2023/04/19 10:39:59;;;;;;;5.97;2.00;;;;;;;15.88;41.11;102530.16;5058436;28;20056;-63
2023/04/19 10:43:01;;;;;;;6.88;2.20;;;;;;;16.00;39.78;102534.72;5058659;28;20048;-63
2023/04/19 10:45:33;;;;;;;5.63;2.00;;;;;;;16.41;39.83;102535.72;5056340;28;20435;-63
2023/04/19 10:48:03;;;;;;;4.93;2.35;;;;;;;16.28;40.14;102526.84;5052654;28;20955;-63
2023/04/19 10:51:04;;;;;;;4.18;1.98;;;;;;;16.69;38.45;102526.88;5055499;28;20041;-62
2023/04/19 10:53:47;;;;;;;5.43;1.88;;;;;;;16.56;38.26;102520.63;5059692;28;20045;-63
2023/04/19 10:56:17;;;;;;;3.72;1.83;;;;;;;16.83;37.64;102523.31;5063019;28;20049;-63
2023/04/19 10:59:14;;;;;;;3.33;1.90;;;;;;;16.57;36.72;102517.03;5060917;28;20033;-63
2023/04/19 11:01:44;;;;;;;3.80;1.90;;;;;;;16.87;35.93;102513.34;5047733;28;20124;-63
2023/04/19 11:04:14;;;;;;;3.95;2.00;;;;;;;16.88;35.45;102512.41;5059176;28;20052;-63
2023/04/19 11:07:01;;;;;;;6.47;2.28;;;;;;;16.99;34.22;102509.91;5059145;28;20111;-63
2023/04/19 11:09:34;;;;;;;5.57;1.90;;;;;;;16.92;35.11;102497.97;5056597;28;20041;-55
2023/04/19 11:12:03;;;;;;;;;;;;;;;17.28;35.08;102501.78;5059849;28;20041;-56
2023/04/19 11:14:34;;;;;;;7.72;2.25;;;;;;;17.45;32.76;102491.81;5058792;28;20394;-56
2023/04/19 11:17:04;;;;;;;3.63;2.03;;;;;;;17.64;32.60;102486.06;5056773;28;20041;-56
2023/04/19 11:19:33;;;;;;;4.47;2.00;;;;;;;17.73;32.83;102480.94;5056155;28;20080;-55
2023/04/19 11:22:03;;;;;;;5.18;2.00;;;;;;;18.06;31.90;102470.72;5059145;28;20036;-56
2023/04/19 11:24:35;;;;;;;5.43;2.20;;;;;;;18.01;29.61;102478.19;5063509;28;20143;-56
2023/04/19 11:27:09;;;;;;;5.68;1.95;;;;;;;17.95;30.85;102463.50;5068993;28;20063;-54
2023/04/19 11:29:37;;;;;;;5.95;2.25;;;;;;;17.96;31.05;102457.22;5070346;28;20111;-55
2023/04/19 11:32:05;;;;;;;5.25;2.08;;;;;;;18.22;28.47;102459.84;5072310;28;20040;-56
2023/04/19 11:34:36;;;;;;;5.57;2.28;;;;;;;17.72;27.72;102450.00;5066739;28;20052;-55
2023/04/19 11:37:05;;;;;;;5.68;2.13;;;;;;;17.65;28.39;102459.34;5056991;28;20439;-54